createdAt,value
2018-12-02T00:00:13.133Z,1005.54
2018-12-02T00:01:13.127Z,1005.51
2018-12-02T00:02:13.107Z,1005.54
2018-12-02T00:03:13.101Z,1005.46
2018-12-02T00:04:13.088Z,1005.44
2018-12-02T00:05:13.081Z,1005.42
2018-12-02T00:06:13.061Z,1005.43
2018-12-02T00:07:13.054Z,1005.39
2018-12-02T00:08:13.038Z,1005.42
2018-12-02T00:10:54.285Z,1005.34
2018-12-02T00:12:15.642Z,1005.30
2018-12-02T00:13:47.590Z,1005.27
2018-12-02T00:14:47.577Z,1005.24
2018-12-02T00:15:47.571Z,1005.19
2018-12-02T00:16:47.605Z,1005.20
2018-12-02T00:17:47.536Z,1005.20
2018-12-02T00:18:47.530Z,1005.16
2018-12-02T00:19:47.521Z,1005.15
2018-12-02T00:20:47.508Z,1005.15
2018-12-02T00:21:47.501Z,1005.08
2018-12-02T00:22:47.486Z,1005.12
2018-12-02T00:23:47.476Z,1005.05
2018-12-02T00:26:15.060Z,1005.09
2018-12-02T00:27:15.053Z,1005.10
2018-12-02T00:28:15.036Z,1005.10
2018-12-02T00:29:34.672Z,1005.08
2018-12-02T00:30:46.002Z,1005.09
2018-12-02T00:33:14.986Z,1005.13
2018-12-02T00:35:42.593Z,1005.09
2018-12-02T00:37:01.170Z,1005.03
2018-12-02T00:37:42.535Z,1005.06
2018-12-02T00:38:42.523Z,1005.00
2018-12-02T00:39:42.521Z,1004.97
2018-12-02T00:40:42.506Z,1004.92
2018-12-02T00:41:42.496Z,1004.91
2018-12-02T00:42:42.478Z,1004.94
2018-12-02T00:43:42.472Z,1004.96
2018-12-02T00:44:42.466Z,1004.94
2018-12-02T00:45:42.472Z,1004.97
2018-12-02T00:46:42.441Z,1004.93
2018-12-02T00:47:42.435Z,1004.94
2018-12-02T00:48:42.421Z,1004.88
2018-12-02T00:49:42.408Z,1004.96
2018-12-02T00:50:42.406Z,1004.95
2018-12-02T00:51:42.384Z,1004.93
2018-12-02T00:52:42.388Z,1004.87
2018-12-02T00:53:42.414Z,1004.89
2018-12-02T00:54:42.353Z,1004.90
2018-12-02T00:55:42.344Z,1004.92
2018-12-02T00:56:42.335Z,1004.86
2018-12-02T00:57:42.318Z,1004.86
2018-12-02T00:59:01.960Z,1004.85
2018-12-02T01:00:24.347Z,1004.77
2018-12-02T01:01:24.342Z,1004.81
2018-12-02T01:02:24.320Z,1004.83
2018-12-02T01:03:24.316Z,1004.81
2018-12-02T01:04:24.311Z,1004.79
2018-12-02T01:05:24.297Z,1004.79
2018-12-02T01:06:24.285Z,1004.78
2018-12-02T01:07:24.313Z,1004.80
2018-12-02T01:08:24.256Z,1004.83
2018-12-02T01:09:24.251Z,1004.83
2018-12-02T01:10:24.235Z,1004.83
2018-12-02T01:11:24.224Z,1004.83
2018-12-02T01:12:24.215Z,1004.83
2018-12-02T01:13:24.198Z,1004.83
2018-12-02T01:14:24.192Z,1004.74
2018-12-02T01:15:24.190Z,1004.75
2018-12-02T01:16:24.170Z,1004.79
2018-12-02T01:17:24.159Z,1004.76
2018-12-02T01:18:24.149Z,1004.72
2018-12-02T01:19:24.138Z,1004.72
2018-12-02T01:20:24.121Z,1004.73
2018-12-02T01:21:24.114Z,1004.71
2018-12-02T01:22:24.107Z,1004.72
2018-12-02T01:23:24.096Z,1004.69
2018-12-02T01:24:24.120Z,1004.69
2018-12-02T01:25:24.069Z,1004.69
2018-12-02T01:26:24.061Z,1004.69
2018-12-02T01:27:24.043Z,1004.66
2018-12-02T01:28:24.033Z,1004.69
2018-12-02T01:29:24.036Z,1004.67
2018-12-02T01:30:24.012Z,1004.66
2018-12-02T01:31:24.009Z,1004.66
2018-12-02T01:32:23.998Z,1004.66
2018-12-02T01:33:23.976Z,1004.64
2018-12-02T01:34:23.971Z,1004.62
2018-12-02T01:35:23.967Z,1004.63
2018-12-02T01:36:23.956Z,1004.61
2018-12-02T01:37:23.942Z,1004.61
2018-12-02T01:38:23.935Z,1004.57
2018-12-02T01:39:23.924Z,1004.61
2018-12-02T01:40:23.905Z,1004.58
2018-12-02T01:41:23.907Z,1004.50
2018-12-02T01:42:23.877Z,1004.52
2018-12-02T01:43:23.866Z,1004.47
2018-12-02T01:44:23.854Z,1004.50
2018-12-02T01:45:23.842Z,1004.50
2018-12-02T01:46:23.838Z,1004.43
2018-12-02T01:47:23.828Z,1004.35
2018-12-02T01:48:23.810Z,1004.34
2018-12-02T01:49:23.803Z,1004.33
2018-12-02T01:50:23.789Z,1004.35
2018-12-02T01:51:23.788Z,1004.31
2018-12-02T01:52:23.776Z,1004.32
2018-12-02T01:53:23.763Z,1004.29
2018-12-02T01:54:23.748Z,1004.35
2018-12-02T01:55:23.738Z,1004.31
2018-12-02T01:56:23.728Z,1004.34
2018-12-02T01:57:23.727Z,1004.29
2018-12-02T01:58:23.714Z,1004.24
2018-12-02T01:59:23.690Z,1004.20
2018-12-02T02:00:23.683Z,1004.17
2018-12-02T02:01:23.676Z,1004.14
2018-12-02T02:02:23.661Z,1004.14
2018-12-02T02:03:23.698Z,1004.08
2018-12-02T02:04:23.632Z,1004.05
2018-12-02T02:05:23.621Z,1004.04
2018-12-02T02:06:23.617Z,1004.01
2018-12-02T02:07:23.615Z,1003.97
2018-12-02T02:08:23.595Z,1003.93
2018-12-02T02:09:23.583Z,1003.96
2018-12-02T02:10:23.568Z,1003.91
2018-12-02T02:11:23.557Z,1003.90
2018-12-02T02:12:23.565Z,1003.89
2018-12-02T02:13:23.533Z,1003.86
2018-12-02T02:14:23.531Z,1003.86
2018-12-02T02:15:23.518Z,1003.83
2018-12-02T02:16:23.499Z,1003.82
2018-12-02T02:17:23.489Z,1003.81
2018-12-02T02:18:23.487Z,1003.80
2018-12-02T02:19:23.469Z,1003.79
2018-12-02T02:20:23.485Z,1003.76
2018-12-02T02:21:23.448Z,1003.71
2018-12-02T02:22:23.435Z,1003.70
2018-12-02T02:23:23.421Z,1003.70
2018-12-02T02:24:23.421Z,1003.70
2018-12-02T02:25:23.433Z,1003.69
2018-12-02T02:26:23.397Z,1003.70
2018-12-02T02:27:23.392Z,1003.69
2018-12-02T02:28:23.394Z,1003.73
2018-12-02T02:30:50.962Z,1003.68
2018-12-02T02:31:50.945Z,1003.66
2018-12-02T02:32:50.944Z,1003.63
2018-12-02T02:33:50.920Z,1003.58
2018-12-02T02:34:50.908Z,1003.63
2018-12-02T02:35:50.903Z,1003.63
2018-12-02T02:36:50.884Z,1003.61
2018-12-02T02:37:50.882Z,1003.57
2018-12-02T02:38:50.868Z,1003.57
2018-12-02T02:39:50.853Z,1003.59
2018-12-02T02:40:50.846Z,1003.61
2018-12-02T02:41:50.835Z,1003.57
2018-12-02T02:42:50.823Z,1003.54
2018-12-02T02:43:50.810Z,1003.52
2018-12-02T02:44:50.794Z,1003.52
2018-12-02T02:45:50.792Z,1003.51
2018-12-02T02:46:50.785Z,1003.53
2018-12-02T02:47:50.766Z,1003.53
2018-12-02T02:48:50.757Z,1003.50
2018-12-02T02:49:50.741Z,1003.51
2018-12-02T02:50:50.733Z,1003.49
2018-12-02T02:51:50.722Z,1003.48
2018-12-02T02:52:50.709Z,1003.41
2018-12-02T02:53:50.696Z,1003.32
2018-12-02T02:54:50.691Z,1003.30
2018-12-02T02:55:50.692Z,1003.20
2018-12-02T02:56:50.678Z,1003.16
2018-12-02T02:57:50.668Z,1003.07
2018-12-02T02:58:50.651Z,1003.03
2018-12-02T02:59:50.648Z,1002.97
2018-12-02T03:00:50.625Z,1003.02
2018-12-02T03:02:11.286Z,1003.09
2018-12-02T03:03:33.689Z,1003.05
2018-12-02T03:04:33.663Z,1003.00
2018-12-02T03:06:15.729Z,1003.01
2018-12-02T03:07:15.716Z,1002.95
2018-12-02T03:08:15.697Z,1002.95
2018-12-02T03:09:15.685Z,1002.94
2018-12-02T03:10:15.687Z,1002.96
2018-12-02T03:11:15.685Z,1003.00
2018-12-02T03:12:15.662Z,1003.00
2018-12-02T03:13:15.664Z,1002.99
2018-12-02T03:14:15.634Z,1002.99
2018-12-02T03:15:15.625Z,1002.97
2018-12-02T03:16:15.609Z,1002.98
2018-12-02T03:17:15.599Z,1003.00
2018-12-02T03:18:15.596Z,1002.97
2018-12-02T03:19:15.575Z,1002.94
2018-12-02T03:20:15.575Z,1002.97
2018-12-02T03:21:15.577Z,1002.96
2018-12-02T03:22:15.554Z,1002.95
2018-12-02T03:23:15.533Z,1002.95
2018-12-02T03:24:15.530Z,1002.92
2018-12-02T03:25:34.181Z,1002.92
2018-12-02T03:26:57.556Z,1002.91
2018-12-02T03:27:57.542Z,1002.89
2018-12-02T03:28:57.563Z,1002.91
2018-12-02T03:29:57.527Z,1002.88
2018-12-02T03:30:57.511Z,1002.88
2018-12-02T03:31:57.504Z,1002.85
2018-12-02T03:32:57.485Z,1002.83
2018-12-02T03:33:57.478Z,1002.83
2018-12-02T03:34:57.458Z,1002.84
2018-12-02T03:35:57.446Z,1002.82
2018-12-02T03:36:57.442Z,1002.81
2018-12-02T03:37:57.430Z,1002.78
2018-12-02T03:38:57.414Z,1002.79
2018-12-02T03:39:57.412Z,1002.79
2018-12-02T03:40:57.400Z,1002.74
2018-12-02T03:41:57.389Z,1002.70
2018-12-02T03:42:57.376Z,1002.70
2018-12-02T03:43:57.359Z,1002.67
2018-12-02T03:44:57.355Z,1002.62
2018-12-02T03:45:57.343Z,1002.58
2018-12-02T03:46:57.327Z,1002.56
2018-12-02T03:47:57.319Z,1002.54
2018-12-02T03:48:57.311Z,1002.48
2018-12-02T03:49:57.298Z,1002.51
2018-12-02T03:50:57.287Z,1002.43
2018-12-02T03:51:57.275Z,1002.45
2018-12-02T03:52:57.265Z,1002.42
2018-12-02T03:53:57.248Z,1002.44
2018-12-02T03:54:57.241Z,1002.43
2018-12-02T03:55:57.233Z,1002.37
2018-12-02T03:56:57.224Z,1002.40
2018-12-02T03:57:57.207Z,1002.39
2018-12-02T03:58:57.194Z,1002.36
2018-12-02T03:59:57.187Z,1002.40
2018-12-02T04:00:57.170Z,1002.41
2018-12-02T04:01:57.161Z,1002.39
2018-12-02T04:02:57.152Z,1002.39
2018-12-02T04:03:57.144Z,1002.37
2018-12-02T04:04:57.127Z,1002.37
2018-12-02T04:05:57.121Z,1002.32
2018-12-02T04:06:57.109Z,1002.33
2018-12-02T04:07:57.097Z,1002.30
2018-12-02T04:08:57.092Z,1002.32
2018-12-02T04:09:57.076Z,1002.30
2018-12-02T04:10:57.066Z,1002.29
2018-12-02T04:11:57.059Z,1002.30
2018-12-02T04:12:57.053Z,1002.26
2018-12-02T04:13:57.060Z,1002.17
2018-12-02T04:14:57.027Z,1002.20
2018-12-02T04:15:57.018Z,1002.22
2018-12-02T04:16:57.007Z,1002.20
2018-12-02T04:17:56.995Z,1002.16
2018-12-02T04:18:56.979Z,1002.16
2018-12-02T04:19:56.971Z,1002.18
2018-12-02T04:20:56.959Z,1002.08
2018-12-02T04:21:56.949Z,1002.08
2018-12-02T04:22:56.943Z,1002.00
2018-12-02T04:23:56.924Z,1002.02
2018-12-02T04:24:56.916Z,1002.05
2018-12-02T04:25:56.899Z,1002.02
2018-12-02T04:26:56.889Z,1002.01
2018-12-02T04:27:56.880Z,1002.02
2018-12-02T04:28:56.871Z,1002.01
2018-12-02T04:29:56.864Z,1002.04
2018-12-02T04:30:56.855Z,1002.02
2018-12-02T04:31:56.842Z,1002.01
2018-12-02T04:32:56.826Z,1001.97
2018-12-02T04:34:16.677Z,1001.97
2018-12-02T04:35:38.879Z,1001.90
2018-12-02T04:36:38.855Z,1001.92
2018-12-02T04:37:38.850Z,1001.90
2018-12-02T04:38:38.837Z,1001.83
2018-12-02T04:39:38.825Z,1001.81
2018-12-02T04:40:38.812Z,1001.77
2018-12-02T04:42:00.418Z,1001.74
2018-12-02T04:43:20.843Z,1001.62
2018-12-02T04:44:40.482Z,1001.59
2018-12-02T04:46:02.871Z,1001.46
2018-12-02T04:47:02.866Z,1001.41
2018-12-02T04:48:02.852Z,1001.40
2018-12-02T04:49:02.842Z,1001.37
2018-12-02T04:50:02.841Z,1001.41
2018-12-02T04:51:02.828Z,1001.38
2018-12-02T04:52:02.804Z,1001.39
2018-12-02T04:53:02.792Z,1001.36
2018-12-02T04:54:02.781Z,1001.36
2018-12-02T04:55:02.781Z,1001.25
2018-12-02T04:56:02.769Z,1001.27
2018-12-02T04:57:02.753Z,1001.27
2018-12-02T04:58:02.738Z,1001.29
2018-12-02T04:59:02.728Z,1001.23
2018-12-02T05:00:02.736Z,1001.31
2018-12-02T05:01:02.705Z,1001.22
2018-12-02T05:02:02.705Z,1001.13
2018-12-02T05:03:02.683Z,1001.12
2018-12-02T05:04:02.671Z,1001.09
2018-12-02T05:05:02.666Z,1000.99
2018-12-02T05:06:02.654Z,1001.03
2018-12-02T05:07:02.650Z,1000.98
2018-12-02T05:08:02.634Z,1000.98
2018-12-02T05:09:02.621Z,1000.93
2018-12-02T05:10:02.608Z,1000.94
2018-12-02T05:11:02.600Z,1000.91
2018-12-02T05:12:02.587Z,1000.96
2018-12-02T05:13:02.585Z,1000.95
2018-12-02T05:14:02.563Z,1000.95
2018-12-02T05:15:02.551Z,1000.97
2018-12-02T05:16:02.541Z,1000.97
2018-12-02T05:17:02.526Z,1000.93
2018-12-02T05:18:02.525Z,1000.95
2018-12-02T05:19:02.506Z,1000.97
2018-12-02T05:20:02.492Z,1000.92
2018-12-02T05:21:02.486Z,1000.89
2018-12-02T05:22:02.470Z,1000.89
2018-12-02T05:23:02.467Z,1000.84
2018-12-02T05:24:02.455Z,1000.94
2018-12-02T05:25:02.441Z,1000.96
2018-12-02T05:26:02.429Z,1000.92
2018-12-02T05:27:02.427Z,1000.98
2018-12-02T05:28:02.405Z,1001.00
2018-12-02T05:29:02.404Z,1001.00
2018-12-02T05:30:02.382Z,1000.92
2018-12-02T05:31:02.369Z,1000.95
2018-12-02T05:32:02.365Z,1000.90
2018-12-02T05:33:02.353Z,1000.94
2018-12-02T05:34:02.338Z,1000.96
2018-12-02T05:35:02.340Z,1000.97
2018-12-02T05:36:02.314Z,1000.91
2018-12-02T05:37:02.307Z,1000.98
2018-12-02T05:38:02.307Z,1000.88
2018-12-02T05:39:02.285Z,1000.94
2018-12-02T05:40:02.272Z,1000.96
2018-12-02T05:41:02.259Z,1000.95
2018-12-02T05:42:02.248Z,1000.97
2018-12-02T05:43:21.891Z,1000.93
2018-12-02T05:44:02.229Z,1000.92
2018-12-02T05:45:02.214Z,1000.87
2018-12-02T05:46:02.214Z,1000.91
2018-12-02T05:47:02.191Z,1000.90
2018-12-02T05:48:02.179Z,1000.90
2018-12-02T05:49:02.168Z,1000.89
2018-12-02T05:50:02.168Z,1000.90
2018-12-02T05:51:02.154Z,1000.83
2018-12-02T05:52:02.150Z,1000.79
2018-12-02T05:53:02.124Z,1000.78
2018-12-02T05:54:02.116Z,1000.77
2018-12-02T05:55:02.107Z,1000.75
2018-12-02T05:56:02.092Z,1000.73
2018-12-02T05:57:02.091Z,1000.72
2018-12-02T05:58:02.068Z,1000.73
2018-12-02T05:59:02.065Z,1000.73
2018-12-02T06:00:02.050Z,1000.69
2018-12-02T06:01:02.065Z,1000.60
2018-12-02T06:02:02.035Z,1000.58
2018-12-02T06:03:02.035Z,1000.60
2018-12-02T06:04:02.004Z,1000.57
2018-12-02T06:05:01.998Z,1000.57
2018-12-02T06:06:01.983Z,1000.60
2018-12-02T06:07:01.972Z,1000.54
2018-12-02T06:08:01.960Z,1000.52
2018-12-02T06:09:01.953Z,1000.50
2018-12-02T06:10:01.943Z,1000.49
2018-12-02T06:11:01.924Z,1000.46
2018-12-02T06:12:01.926Z,1000.50
2018-12-02T06:13:01.904Z,1000.37
2018-12-02T06:14:01.901Z,1000.44
2018-12-02T06:15:01.885Z,1000.45
2018-12-02T06:16:01.875Z,1000.44
2018-12-02T06:17:01.866Z,1000.41
2018-12-02T06:18:01.857Z,1000.47
2018-12-02T06:19:01.839Z,1000.40
2018-12-02T06:20:04.647Z,1000.35
2018-12-02T06:21:01.831Z,1000.34
2018-12-02T06:22:01.819Z,1000.35
2018-12-02T06:23:01.801Z,1000.29
2018-12-02T06:24:01.792Z,1000.32
2018-12-02T06:25:01.779Z,1000.33
2018-12-02T06:26:01.774Z,1000.40
2018-12-02T06:27:01.759Z,1000.42
2018-12-02T06:28:01.743Z,1000.38
2018-12-02T06:29:01.730Z,1000.39
2018-12-02T06:30:01.738Z,1000.39
2018-12-02T06:31:01.715Z,1000.43
2018-12-02T06:32:01.697Z,1000.39
2018-12-02T06:33:01.686Z,1000.43
2018-12-02T06:34:01.676Z,1000.40
2018-12-02T06:35:01.664Z,1000.44
2018-12-02T06:36:01.653Z,1000.39
2018-12-02T06:37:01.644Z,1000.46
2018-12-02T06:38:01.629Z,1000.45
2018-12-02T06:39:01.615Z,1000.44
2018-12-02T06:40:01.611Z,1000.55
2018-12-02T06:41:01.591Z,1000.56
2018-12-02T06:42:01.591Z,1000.57
2018-12-02T06:43:01.570Z,1000.58
2018-12-02T06:44:01.559Z,1000.56
2018-12-02T06:45:01.551Z,1000.52
2018-12-02T06:46:01.536Z,1000.51
2018-12-02T06:47:01.540Z,1000.49
2018-12-02T06:48:01.521Z,1000.48
2018-12-02T06:49:01.511Z,1000.51
2018-12-02T06:50:01.510Z,1000.46
2018-12-02T06:51:01.490Z,1000.42
2018-12-02T06:52:01.482Z,1000.38
2018-12-02T06:53:01.471Z,1000.33
2018-12-02T06:54:01.466Z,1000.36
2018-12-02T06:55:01.442Z,1000.32
2018-12-02T06:56:01.425Z,1000.39
2018-12-02T06:57:01.420Z,1000.42
2018-12-02T06:58:01.412Z,1000.45
2018-12-02T06:59:01.404Z,1000.46
2018-12-02T07:00:01.385Z,1000.42
2018-12-02T07:01:01.374Z,1000.42
2018-12-02T07:02:01.363Z,1000.39
2018-12-02T07:03:01.356Z,1000.44
2018-12-02T07:04:01.341Z,1000.46
2018-12-02T07:05:01.375Z,1000.40
2018-12-02T07:06:01.318Z,1000.39
2018-12-02T07:07:01.319Z,1000.31
2018-12-02T07:08:01.292Z,1000.28
2018-12-02T07:09:01.290Z,1000.17
2018-12-02T07:10:01.285Z,1000.24
2018-12-02T07:11:01.271Z,1000.20
2018-12-02T07:12:01.257Z,1000.21
2018-12-02T07:13:01.246Z,1000.17
2018-12-02T07:14:01.235Z,1000.14
2018-12-02T07:15:01.226Z,1000.19
2018-12-02T07:16:01.214Z,1000.10
2018-12-02T07:17:01.206Z,1000.07
2018-12-02T07:18:01.201Z,1000.03
2018-12-02T07:19:01.181Z,999.96
2018-12-02T07:20:01.170Z,999.93
2018-12-02T07:21:01.156Z,999.90
2018-12-02T07:22:01.140Z,999.96
2018-12-02T07:23:01.136Z,999.92
2018-12-02T07:24:01.117Z,999.86
2018-12-02T07:25:01.109Z,999.93
2018-12-02T07:26:01.093Z,999.95
2018-12-02T07:27:01.098Z,1000.02
2018-12-02T07:28:01.085Z,1000.05
2018-12-02T07:29:01.067Z,1000.02
2018-12-02T07:30:01.066Z,1000.01
2018-12-02T07:31:01.043Z,999.97
2018-12-02T07:32:01.031Z,999.85
2018-12-02T07:33:01.050Z,999.79
2018-12-02T07:34:01.020Z,999.81
2018-12-02T07:35:01.005Z,999.80
2018-12-02T07:36:00.996Z,999.79
2018-12-02T07:37:00.982Z,999.84
2018-12-02T07:38:00.968Z,999.81
2018-12-02T07:39:00.973Z,999.77
2018-12-02T07:40:00.943Z,999.65
2018-12-02T07:41:00.930Z,999.59
2018-12-02T07:42:00.917Z,999.58
2018-12-02T07:43:00.907Z,999.60
2018-12-02T07:44:00.894Z,999.56
2018-12-02T07:45:00.879Z,999.56
2018-12-02T07:46:00.873Z,999.57
2018-12-02T07:47:00.858Z,999.52
2018-12-02T07:48:00.849Z,999.53
2018-12-02T07:49:00.844Z,999.55
2018-12-02T07:50:00.838Z,999.55
2018-12-02T07:51:00.828Z,999.53
2018-12-02T07:52:00.804Z,999.50
2018-12-02T07:53:00.792Z,999.41
2018-12-02T07:54:00.784Z,999.37
2018-12-02T07:55:00.773Z,999.33
2018-12-02T07:56:00.757Z,999.36
2018-12-02T07:57:20.403Z,999.31
2018-12-02T07:58:42.802Z,999.35
2018-12-02T08:00:01.459Z,999.30
2018-12-02T08:02:10.939Z,999.41
2018-12-02T08:03:30.573Z,999.31
2018-12-02T08:04:10.911Z,999.33
2018-12-02T08:05:31.558Z,999.23
2018-12-02T08:06:52.952Z,999.33
2018-12-02T08:07:52.947Z,999.31
2018-12-02T08:08:52.988Z,999.29
2018-12-02T08:09:52.924Z,999.27
2018-12-02T08:10:52.908Z,999.17
2018-12-02T08:12:11.543Z,999.17
2018-12-02T08:13:12.538Z,999.20
2018-12-02T08:14:35.958Z,999.25
2018-12-02T08:15:35.940Z,999.16
2018-12-02T08:16:35.936Z,999.17
2018-12-02T08:17:35.919Z,999.15
2018-12-02T08:18:35.897Z,999.07
2018-12-02T08:19:35.893Z,999.12
2018-12-02T08:20:55.530Z,999.07
2018-12-02T08:22:17.913Z,999.04
2018-12-02T08:23:17.906Z,999.07
2018-12-02T08:24:17.892Z,999.08
2018-12-02T08:25:17.934Z,999.05
2018-12-02T08:26:17.868Z,999.05
2018-12-02T08:27:17.862Z,999.02
2018-12-02T08:28:17.853Z,998.99
2018-12-02T08:29:17.835Z,999.00
2018-12-02T08:30:17.826Z,998.95
2018-12-02T08:31:17.822Z,998.99
2018-12-02T08:32:17.806Z,998.97
2018-12-02T08:33:17.795Z,998.96
2018-12-02T08:34:36.425Z,998.95
2018-12-02T08:35:59.829Z,999.01
2018-12-02T08:36:59.817Z,998.91
2018-12-02T08:37:59.806Z,998.92
2018-12-02T08:38:59.795Z,998.93
2018-12-02T08:39:59.789Z,998.94
2018-12-02T08:40:59.774Z,998.92
2018-12-02T08:41:59.759Z,998.92
2018-12-02T08:42:59.745Z,998.91
2018-12-02T08:43:59.742Z,998.91
2018-12-02T08:44:59.728Z,998.93
2018-12-02T08:45:59.720Z,998.91
2018-12-02T08:46:59.710Z,998.85
2018-12-02T08:47:59.692Z,998.86
2018-12-02T08:48:59.685Z,998.81
2018-12-02T08:49:59.670Z,998.80
2018-12-02T08:50:59.661Z,998.79
2018-12-02T08:51:59.661Z,998.78
2018-12-02T08:52:59.641Z,998.79
2018-12-02T08:53:59.622Z,998.77
2018-12-02T08:54:59.616Z,998.76
2018-12-02T08:55:59.599Z,998.76
2018-12-02T08:56:59.588Z,998.74
2018-12-02T08:57:59.585Z,998.67
2018-12-02T08:58:59.577Z,998.73
2018-12-02T08:59:59.561Z,998.74
2018-12-02T09:00:59.544Z,998.70
2018-12-02T09:01:59.539Z,998.70
2018-12-02T09:02:59.522Z,998.69
2018-12-02T09:03:59.515Z,998.68
2018-12-02T09:04:59.501Z,998.70
2018-12-02T09:05:59.493Z,998.69
2018-12-02T09:06:59.480Z,998.66
2018-12-02T09:07:59.477Z,998.62
2018-12-02T09:08:59.462Z,998.62
2018-12-02T09:09:59.717Z,998.64
2018-12-02T09:10:59.435Z,998.58
2018-12-02T09:11:59.428Z,998.60
2018-12-02T09:12:59.417Z,998.58
2018-12-02T09:13:59.408Z,998.59
2018-12-02T09:14:59.420Z,998.63
2018-12-02T09:15:59.385Z,998.61
2018-12-02T09:16:59.367Z,998.58
2018-12-02T09:17:59.360Z,998.59
2018-12-02T09:18:59.357Z,998.55
2018-12-02T09:19:59.338Z,998.49
2018-12-02T09:20:59.341Z,998.47
2018-12-02T09:21:59.316Z,998.45
2018-12-02T09:22:59.298Z,998.35
2018-12-02T09:23:59.290Z,998.43
2018-12-02T09:24:59.289Z,998.42
2018-12-02T09:25:59.271Z,998.45
2018-12-02T09:26:59.281Z,998.39
2018-12-02T09:27:59.248Z,998.39
2018-12-02T09:28:59.240Z,998.33
2018-12-02T09:29:59.222Z,998.35
2018-12-02T09:30:59.213Z,998.32
2018-12-02T09:31:59.219Z,998.36
2018-12-02T09:32:59.242Z,998.30
2018-12-02T09:33:59.182Z,998.26
2018-12-02T09:34:59.179Z,998.29
2018-12-02T09:35:59.159Z,998.17
2018-12-02T09:36:59.158Z,998.23
2018-12-02T09:37:59.145Z,998.26
2018-12-02T09:38:59.132Z,998.16
2018-12-02T09:39:59.121Z,998.13
2018-12-02T09:40:59.104Z,998.19
2018-12-02T09:41:59.117Z,998.05
2018-12-02T09:42:59.091Z,998.08
2018-12-02T09:43:59.071Z,998.10
2018-12-02T09:44:59.069Z,998.13
2018-12-02T09:45:59.068Z,998.11
2018-12-02T09:46:59.054Z,998.05
2018-12-02T09:48:18.674Z,998.01
2018-12-02T09:49:41.065Z,998.02
2018-12-02T09:50:41.056Z,997.92
2018-12-02T09:51:41.037Z,997.96
2018-12-02T09:52:41.035Z,997.97
2018-12-02T09:53:41.009Z,997.94
2018-12-02T09:54:41.000Z,997.91
2018-12-02T09:55:40.992Z,997.89
2018-12-02T09:56:40.983Z,997.90
2018-12-02T09:57:40.969Z,997.88
2018-12-02T09:58:40.959Z,997.89
2018-12-02T09:59:40.949Z,997.90
2018-12-02T10:00:40.938Z,997.89
2018-12-02T10:01:40.929Z,997.89
2018-12-02T10:02:40.915Z,997.83
2018-12-02T10:03:40.906Z,997.83
2018-12-02T10:04:40.888Z,997.79
2018-12-02T10:05:40.880Z,997.80
2018-12-02T10:06:40.867Z,997.78
2018-12-02T10:07:40.856Z,997.78
2018-12-02T10:08:40.850Z,997.78
2018-12-02T10:09:40.846Z,997.68
2018-12-02T10:10:40.838Z,997.71
2018-12-02T10:11:40.823Z,997.77
2018-12-02T10:12:40.812Z,997.68
2018-12-02T10:13:40.807Z,997.71
2018-12-02T10:14:40.789Z,997.70
2018-12-02T10:15:40.779Z,997.72
2018-12-02T10:16:40.768Z,997.64
2018-12-02T10:17:40.793Z,997.66
2018-12-02T10:18:40.750Z,997.63
2018-12-02T10:19:40.731Z,997.63
2018-12-02T10:20:40.723Z,997.58
2018-12-02T10:21:40.716Z,997.54
2018-12-02T10:22:40.701Z,997.53
2018-12-02T10:23:40.680Z,997.53
2018-12-02T10:24:40.667Z,997.49
2018-12-02T10:25:40.662Z,997.52
2018-12-02T10:26:40.651Z,997.49
2018-12-02T10:27:40.641Z,997.50
2018-12-02T10:28:40.624Z,997.40
2018-12-02T10:30:01.260Z,997.40
2018-12-02T10:31:11.576Z,997.44
2018-12-02T10:32:12.429Z,997.39
2018-12-02T10:33:11.567Z,997.42
2018-12-02T10:34:31.199Z,997.41
2018-12-02T10:36:40.549Z,997.36
2018-12-02T10:38:01.133Z,997.34
2018-12-02T10:39:22.585Z,997.32
2018-12-02T10:41:50.155Z,997.29
2018-12-02T10:42:50.139Z,997.20
2018-12-02T10:43:50.156Z,997.23
2018-12-02T10:44:50.123Z,997.21
2018-12-02T10:45:50.103Z,997.17
2018-12-02T10:46:50.097Z,997.16
2018-12-02T10:47:50.094Z,997.13
2018-12-02T10:48:50.073Z,997.13
2018-12-02T10:49:50.059Z,997.10
2018-12-02T10:50:50.053Z,997.11
2018-12-02T10:51:50.045Z,997.07
2018-12-02T10:52:50.028Z,997.08
2018-12-02T10:53:50.017Z,997.11
2018-12-02T10:54:50.001Z,997.08
2018-12-02T10:55:49.996Z,997.10
2018-12-02T10:56:49.996Z,997.03
2018-12-02T10:57:49.987Z,997.00
2018-12-02T10:58:49.967Z,997.05
2018-12-02T10:59:49.958Z,996.99
2018-12-02T11:00:49.943Z,997.02
2018-12-02T11:01:49.931Z,996.96
2018-12-02T11:02:49.923Z,996.92
2018-12-02T11:03:49.913Z,996.95
2018-12-02T11:04:49.901Z,996.97
2018-12-02T11:05:49.897Z,996.92
2018-12-02T11:06:49.881Z,996.91
2018-12-02T11:07:49.866Z,996.88
2018-12-02T11:08:49.858Z,996.87
2018-12-02T11:09:49.846Z,996.82
2018-12-02T11:10:49.836Z,996.84
2018-12-02T11:11:49.824Z,996.83
2018-12-02T11:12:49.808Z,996.82
2018-12-02T11:13:49.803Z,996.83
2018-12-02T11:14:49.782Z,996.80
2018-12-02T11:15:49.782Z,996.79
2018-12-02T11:16:49.763Z,996.75
2018-12-02T11:17:49.763Z,996.73
2018-12-02T11:18:49.742Z,996.75
2018-12-02T11:19:49.749Z,996.68
2018-12-02T11:20:49.724Z,996.69
2018-12-02T11:21:49.708Z,996.66
2018-12-02T11:22:49.699Z,996.67
2018-12-02T11:23:49.689Z,996.61
2018-12-02T11:24:49.676Z,996.60
2018-12-02T11:25:49.673Z,996.62
2018-12-02T11:26:49.649Z,996.61
2018-12-02T11:27:49.652Z,996.60
2018-12-02T11:28:49.634Z,996.52
2018-12-02T11:29:49.617Z,996.54
2018-12-02T11:30:49.616Z,996.53
2018-12-02T11:31:49.608Z,996.48
2018-12-02T11:32:49.588Z,996.48
2018-12-02T11:33:49.573Z,996.45
2018-12-02T11:34:49.572Z,996.51
2018-12-02T11:35:49.561Z,996.45
2018-12-02T11:36:49.554Z,996.40
2018-12-02T11:37:49.548Z,996.39
2018-12-02T11:38:49.526Z,996.36
2018-12-02T11:39:49.513Z,996.38
2018-12-02T11:40:49.506Z,996.41
2018-12-02T11:41:49.492Z,996.38
2018-12-02T11:42:49.490Z,996.44
2018-12-02T11:43:49.468Z,996.34
2018-12-02T11:44:49.459Z,996.36
2018-12-02T11:45:49.443Z,996.33
2018-12-02T11:46:49.445Z,996.33
2018-12-02T11:47:49.421Z,996.34
2018-12-02T11:48:49.419Z,996.38
2018-12-02T11:49:49.399Z,996.34
2018-12-02T11:50:50.639Z,996.35
2018-12-02T11:51:49.380Z,996.35
2018-12-02T11:52:49.377Z,996.29
2018-12-02T11:53:49.363Z,996.31
2018-12-02T11:54:49.346Z,996.30
2018-12-02T11:55:49.341Z,996.31
2018-12-02T11:56:49.328Z,996.26
2018-12-02T11:57:49.318Z,996.24
2018-12-02T11:58:49.310Z,996.20
2018-12-02T11:59:49.301Z,996.22
2018-12-02T12:00:49.280Z,996.19
2018-12-02T12:01:49.272Z,996.19
2018-12-02T12:02:49.256Z,996.19
2018-12-02T12:03:49.243Z,996.14
2018-12-02T12:04:49.239Z,996.15
2018-12-02T12:05:49.223Z,996.13
2018-12-02T12:06:49.220Z,996.19
2018-12-02T12:07:49.201Z,996.14
2018-12-02T12:08:49.194Z,996.10
2018-12-02T12:09:49.188Z,996.09
2018-12-02T12:10:49.187Z,996.09
2018-12-02T12:11:49.162Z,996.07
2018-12-02T12:12:49.151Z,996.05
2018-12-02T12:13:49.130Z,996.01
2018-12-02T12:14:49.125Z,996.04
2018-12-02T12:15:49.113Z,996.01
2018-12-02T12:16:49.103Z,995.96
2018-12-02T12:17:49.095Z,995.97
2018-12-02T12:18:49.082Z,995.98
2018-12-02T12:19:49.065Z,995.98
2018-12-02T12:20:49.055Z,995.95
2018-12-02T12:21:49.058Z,995.93
2018-12-02T12:22:49.034Z,995.93
2018-12-02T12:23:49.023Z,995.95
2018-12-02T12:24:49.012Z,995.90
2018-12-02T12:25:49.004Z,995.92
2018-12-02T12:26:48.991Z,995.88
2018-12-02T12:27:49.039Z,995.87
2018-12-02T12:28:48.971Z,995.85
2018-12-02T12:29:48.964Z,995.86
2018-12-02T12:30:48.945Z,995.87
2018-12-02T12:31:48.936Z,995.84
2018-12-02T12:32:48.922Z,995.86
2018-12-02T12:33:48.910Z,995.80
2018-12-02T12:34:48.904Z,995.81
2018-12-02T12:35:48.892Z,995.81
2018-12-02T12:36:48.881Z,995.78
2018-12-02T12:37:48.866Z,995.82
2018-12-02T12:38:48.858Z,995.80